sensor_id;sensor_type;location;lat;lon;timestamp;P1;durP1;ratioP1;P2;durP2;ratioP2
2021;SDS011;1015;49.756;6.994;2023-09-07T00:01:29;3.80;;;3.50;;
2021;SDS011;1015;49.756;6.994;2023-09-07T00:03:56;3.83;;;3.53;;
2021;SDS011;1015;49.756;6.994;2023-09-07T00:06:23;3.63;;;3.37;;
2021;SDS011;1015;49.756;6.994;2023-09-07T00:08:52;4.23;;;3.83;;
2021;SDS011;1015;49.756;6.994;2023-09-07T00:11:19;3.90;;;3.60;;
2021;SDS011;1015;49.756;6.994;2023-09-07T00:13:46;4.07;;;3.77;;
2021;SDS011;1015;49.756;6.994;2023-09-07T00:16:13;5.53;;;3.40;;
2021;SDS011;1015;49.756;6.994;2023-09-07T00:18:40;3.87;;;3.53;;
2021;SDS011;1015;49.756;6.994;2023-09-07T00:21:07;3.63;;;3.33;;
2021;SDS011;1015;49.756;6.994;2023-09-07T00:23:34;3.60;;;3.30;;
2021;SDS011;1015;49.756;6.994;2023-09-07T00:26:03;3.10;;;2.90;;
2021;SDS011;1015;49.756;6.994;2023-09-07T00:28:30;3.67;;;3.30;;
2021;SDS011;1015;49.756;6.994;2023-09-07T00:30:57;3.87;;;3.40;;
2021;SDS011;1015;49.756;6.994;2023-09-07T00:33:24;3.40;;;3.10;;
2021;SDS011;1015;49.756;6.994;2023-09-07T00:35:51;3.63;;;3.30;;
2021;SDS011;1015;49.756;6.994;2023-09-07T00:38:18;3.20;;;2.93;;
2021;SDS011;1015;49.756;6.994;2023-09-07T00:40:45;3.77;;;3.43;;
2021;SDS011;1015;49.756;6.994;2023-09-07T00:43:14;3.20;;;2.97;;
2021;SDS011;1015;49.756;6.994;2023-09-07T00:45:41;3.10;;;2.80;;
2021;SDS011;1015;49.756;6.994;2023-09-07T00:48:08;3.53;;;3.23;;
2021;SDS011;1015;49.756;6.994;2023-09-07T00:50:35;3.60;;;3.30;;
2021;SDS011;1015;49.756;6.994;2023-09-07T00:53:03;3.53;;;3.20;;
2021;SDS011;1015;49.756;6.994;2023-09-07T00:55:32;3.40;;;3.10;;
2021;SDS011;1015;49.756;6.994;2023-09-07T00:58:00;3.60;;;3.30;;
2021;SDS011;1015;49.756;6.994;2023-09-07T01:00:29;4.10;;;3.70;;
2021;SDS011;1015;49.756;6.994;2023-09-07T01:02:57;3.40;;;3.20;;
2021;SDS011;1015;49.756;6.994;2023-09-07T01:05:24;3.67;;;3.30;;
2021;SDS011;1015;49.756;6.994;2023-09-07T01:07:54;3.43;;;3.13;;
2021;SDS011;1015;49.756;6.994;2023-09-07T01:10:22;3.40;;;3.20;;
2021;SDS011;1015;49.756;6.994;2023-09-07T01:12:49;3.30;;;3.10;;
2021;SDS011;1015;49.756;6.994;2023-09-07T01:15:17;3.30;;;3.10;;
2021;SDS011;1015;49.756;6.994;2023-09-07T01:17:45;4.00;;;3.60;;
2021;SDS011;1015;49.756;6.994;2023-09-07T01:20:12;3.60;;;3.30;;
2021;SDS011;1015;49.756;6.994;2023-09-07T01:22:43;4.00;;;3.60;;
2021;SDS011;1015;49.756;6.994;2023-09-07T01:25:11;3.50;;;3.20;;
2021;SDS011;1015;49.756;6.994;2023-09-07T01:27:38;3.73;;;3.43;;
2021;SDS011;1015;49.756;6.994;2023-09-07T01:30:06;3.80;;;3.50;;
2021;SDS011;1015;49.756;6.994;2023-09-07T01:32:34;3.90;;;3.60;;
2021;SDS011;1015;49.756;6.994;2023-09-07T01:35:01;3.80;;;3.50;;
2021;SDS011;1015;49.756;6.994;2023-09-07T01:37:31;3.80;;;3.50;;
2021;SDS011;1015;49.756;6.994;2023-09-07T01:40:00;4.00;;;3.63;;
2021;SDS011;1015;49.756;6.994;2023-09-07T01:42:32;5.10;;;3.70;;
2021;SDS011;1015;49.756;6.994;2023-09-07T01:44:59;3.57;;;3.27;;
2021;SDS011;1015;49.756;6.994;2023-09-07T01:47:26;3.73;;;3.43;;
2021;SDS011;1015;49.756;6.994;2023-09-07T01:49:53;3.90;;;3.50;;
2021;SDS011;1015;49.756;6.994;2023-09-07T01:52:20;3.53;;;3.23;;
2021;SDS011;1015;49.756;6.994;2023-09-07T01:54:47;3.57;;;3.37;;
2021;SDS011;1015;49.756;6.994;2023-09-07T01:57:16;5.70;;;3.40;;
2021;SDS011;1015;49.756;6.994;2023-09-07T01:59:43;3.97;;;3.60;;
2021;SDS011;1015;49.756;6.994;2023-09-07T02:02:10;3.80;;;3.50;;
2021;SDS011;1015;49.756;6.994;2023-09-07T02:04:37;3.80;;;3.50;;
2021;SDS011;1015;49.756;6.994;2023-09-07T02:07:04;4.40;;;4.03;;
2021;SDS011;1015;49.756;6.994;2023-09-07T02:09:31;4.13;;;3.73;;
2021;SDS011;1015;49.756;6.994;2023-09-07T02:11:58;4.00;;;3.70;;
2021;SDS011;1015;49.756;6.994;2023-09-07T02:14:27;4.13;;;3.83;;
2021;SDS011;1015;49.756;6.994;2023-09-07T02:16:54;4.90;;;4.10;;
2021;SDS011;1015;49.756;6.994;2023-09-07T02:19:21;4.10;;;3.80;;
2021;SDS011;1015;49.756;6.994;2023-09-07T02:21:48;4.80;;;4.40;;
2021;SDS011;1015;49.756;6.994;2023-09-07T02:24:16;4.70;;;4.30;;
2021;SDS011;1015;49.756;6.994;2023-09-07T02:26:43;4.30;;;4.00;;
2021;SDS011;1015;49.756;6.994;2023-09-07T02:29:10;4.93;;;4.27;;
2021;SDS011;1015;49.756;6.994;2023-09-07T02:31:39;4.90;;;4.50;;
2021;SDS011;1015;49.756;6.994;2023-09-07T02:34:06;4.50;;;4.10;;
2021;SDS011;1015;49.756;6.994;2023-09-07T02:36:33;4.10;;;3.80;;
2021;SDS011;1015;49.756;6.994;2023-09-07T02:39:01;4.20;;;3.80;;
2021;SDS011;1015;49.756;6.994;2023-09-07T02:41:28;4.63;;;4.23;;
2021;SDS011;1015;49.756;6.994;2023-09-07T02:43:55;4.00;;;3.70;;
2021;SDS011;1015;49.756;6.994;2023-09-07T02:46:22;5.20;;;4.70;;
2021;SDS011;1015;49.756;6.994;2023-09-07T02:48:51;4.93;;;4.53;;
2021;SDS011;1015;49.756;6.994;2023-09-07T02:51:20;6.90;;;4.30;;
2021;SDS011;1015;49.756;6.994;2023-09-07T02:53:47;4.87;;;4.47;;
2021;SDS011;1015;49.756;6.994;2023-09-07T02:56:14;5.50;;;4.83;;
2021;SDS011;1015;49.756;6.994;2023-09-07T02:58:41;4.93;;;4.53;;
2021;SDS011;1015;49.756;6.994;2023-09-07T03:01:10;5.20;;;4.80;;
2021;SDS011;1015;49.756;6.994;2023-09-07T03:03:38;4.93;;;4.53;;
2021;SDS011;1015;49.756;6.994;2023-09-07T03:06:09;5.30;;;4.90;;
2021;SDS011;1015;49.756;6.994;2023-09-07T03:08:36;5.27;;;4.77;;
2021;SDS011;1015;49.756;6.994;2023-09-07T03:11:03;5.97;;;5.37;;
2021;SDS011;1015;49.756;6.994;2023-09-07T03:13:30;4.83;;;4.43;;
2021;SDS011;1015;49.756;6.994;2023-09-07T03:15:57;4.57;;;4.17;;
2021;SDS011;1015;49.756;6.994;2023-09-07T03:18:25;5.33;;;4.80;;
2021;SDS011;1015;49.756;6.994;2023-09-07T03:20:53;5.13;;;4.73;;
2021;SDS011;1015;49.756;6.994;2023-09-07T03:23:22;5.33;;;4.80;;
2021;SDS011;1015;49.756;6.994;2023-09-07T03:25:49;5.03;;;4.63;;
2021;SDS011;1015;49.756;6.994;2023-09-07T03:28:16;5.40;;;4.90;;
2021;SDS011;1015;49.756;6.994;2023-09-07T03:30:43;5.00;;;4.60;;
2021;SDS011;1015;49.756;6.994;2023-09-07T03:33:10;5.70;;;5.10;;
2021;SDS011;1015;49.756;6.994;2023-09-07T03:35:37;5.77;;;5.30;;
2021;SDS011;1015;49.756;6.994;2023-09-07T03:38:06;5.80;;;5.30;;
2021;SDS011;1015;49.756;6.994;2023-09-07T03:40:34;5.07;;;4.67;;
2021;SDS011;1015;49.756;6.994;2023-09-07T03:43:02;6.13;;;5.60;;
2021;SDS011;1015;49.756;6.994;2023-09-07T03:45:29;5.57;;;5.10;;
2021;SDS011;1015;49.756;6.994;2023-09-07T03:47:56;6.13;;;5.40;;
2021;SDS011;1015;49.756;6.994;2023-09-07T03:50:24;6.33;;;5.83;;
2021;SDS011;1015;49.756;6.994;2023-09-07T03:52:51;5.93;;;5.43;;
2021;SDS011;1015;49.756;6.994;2023-09-07T03:55:18;5.60;;;5.17;;
2021;SDS011;1015;49.756;6.994;2023-09-07T03:57:46;7.73;;;6.00;;
2021;SDS011;1015;49.756;6.994;2023-09-07T04:00:14;5.83;;;5.40;;
2021;SDS011;1015;49.756;6.994;2023-09-07T04:02:41;6.20;;;5.70;;
2021;SDS011;1015;49.756;6.994;2023-09-07T04:05:08;5.97;;;5.47;;
2021;SDS011;1015;49.756;6.994;2023-09-07T04:07:36;6.47;;;5.87;;
2021;SDS011;1015;49.756;6.994;2023-09-07T04:10:04;5.63;;;5.23;;
2021;SDS011;1015;49.756;6.994;2023-09-07T04:12:31;4.97;;;4.60;;
2021;SDS011;1015;49.756;6.994;2023-09-07T04:15:01;5.27;;;4.87;;
2021;SDS011;1015;49.756;6.994;2023-09-07T04:17:28;5.80;;;5.30;;
2021;SDS011;1015;49.756;6.994;2023-09-07T04:19:57;5.43;;;5.03;;
2021;SDS011;1015;49.756;6.994;2023-09-07T04:22:24;5.33;;;4.93;;
2021;SDS011;1015;49.756;6.994;2023-09-07T04:24:51;8.00;;;5.97;;
2021;SDS011;1015;49.756;6.994;2023-09-07T04:27:18;6.97;;;6.13;;
2021;SDS011;1015;49.756;6.994;2023-09-07T04:29:45;6.73;;;6.03;;
2021;SDS011;1015;49.756;6.994;2023-09-07T04:32:16;6.40;;;5.63;;
2021;SDS011;1015;49.756;6.994;2023-09-07T04:34:43;6.30;;;5.50;;
2021;SDS011;1015;49.756;6.994;2023-09-07T04:37:11;8.57;;;6.43;;
2021;SDS011;1015;49.756;6.994;2023-09-07T04:39:38;6.70;;;5.73;;
2021;SDS011;1015;49.756;6.994;2023-09-07T04:42:05;5.60;;;5.10;;
2021;SDS011;1015;49.756;6.994;2023-09-07T04:44:33;6.47;;;5.90;;
2021;SDS011;1015;49.756;6.994;2023-09-07T04:47:00;6.80;;;6.13;;
2021;SDS011;1015;49.756;6.994;2023-09-07T04:49:29;7.97;;;7.00;;
2021;SDS011;1015;49.756;6.994;2023-09-07T04:51:56;7.63;;;6.00;;
2021;SDS011;1015;49.756;6.994;2023-09-07T04:54:23;6.70;;;6.17;;
2021;SDS011;1015;49.756;6.994;2023-09-07T04:56:51;7.40;;;6.47;;
2021;SDS011;1015;49.756;6.994;2023-09-07T04:59:18;8.23;;;7.03;;
2021;SDS011;1015;49.756;6.994;2023-09-07T05:01:45;7.10;;;6.50;;
2021;SDS011;1015;49.756;6.994;2023-09-07T05:04:12;8.07;;;6.57;;
2021;SDS011;1015;49.756;6.994;2023-09-07T05:06:40;6.57;;;6.07;;
2021;SDS011;1015;49.756;6.994;2023-09-07T05:09:08;6.70;;;6.10;;
2021;SDS011;1015;49.756;6.994;2023-09-07T05:11:36;6.03;;;5.57;;
2021;SDS011;1015;49.756;6.994;2023-09-07T05:14:03;6.23;;;5.63;;
2021;SDS011;1015;49.756;6.994;2023-09-07T05:16:30;5.97;;;5.43;;
2021;SDS011;1015;49.756;6.994;2023-09-07T05:18:57;5.33;;;4.90;;
2021;SDS011;1015;49.756;6.994;2023-09-07T05:21:24;6.30;;;5.70;;
2021;SDS011;1015;49.756;6.994;2023-09-07T05:23:53;6.63;;;5.47;;
2021;SDS011;1015;49.756;6.994;2023-09-07T05:26:20;5.73;;;5.30;;
2021;SDS011;1015;49.756;6.994;2023-09-07T05:28:49;6.07;;;5.50;;
2021;SDS011;1015;49.756;6.994;2023-09-07T05:31:16;7.07;;;5.13;;
2021;SDS011;1015;49.756;6.994;2023-09-07T05:33:43;5.03;;;4.63;;
2021;SDS011;1015;49.756;6.994;2023-09-07T05:36:10;6.37;;;5.87;;
2021;SDS011;1015;49.756;6.994;2023-09-07T05:38:37;5.80;;;5.30;;
2021;SDS011;1015;49.756;6.994;2023-09-07T05:41:06;6.20;;;5.30;;
2021;SDS011;1015;49.756;6.994;2023-09-07T05:43:33;5.27;;;4.87;;
2021;SDS011;1015;49.756;6.994;2023-09-07T05:46:00;5.63;;;5.07;;
2021;SDS011;1015;49.756;6.994;2023-09-07T05:48:27;5.40;;;4.87;;
2021;SDS011;1015;49.756;6.994;2023-09-07T05:50:55;5.70;;;5.30;;
2021;SDS011;1015;49.756;6.994;2023-09-07T05:53:22;5.17;;;4.77;;
2021;SDS011;1015;49.756;6.994;2023-09-07T05:55:51;5.17;;;4.67;;
2021;SDS011;1015;49.756;6.994;2023-09-07T05:58:19;5.40;;;4.93;;
2021;SDS011;1015;49.756;6.994;2023-09-07T06:00:46;5.33;;;4.80;;
2021;SDS011;1015;49.756;6.994;2023-09-07T06:03:13;4.80;;;4.20;;
2021;SDS011;1015;49.756;6.994;2023-09-07T06:05:40;5.30;;;4.37;;
2021;SDS011;1015;49.756;6.994;2023-09-07T06:08:09;5.50;;;4.40;;
2021;SDS011;1015;49.756;6.994;2023-09-07T06:10:36;5.20;;;4.80;;
2021;SDS011;1015;49.756;6.994;2023-09-07T06:13:03;4.87;;;4.47;;
2021;SDS011;1015;49.756;6.994;2023-09-07T06:15:32;5.00;;;4.50;;
2021;SDS011;1015;49.756;6.994;2023-09-07T06:17:59;5.10;;;4.70;;
2021;SDS011;1015;49.756;6.994;2023-09-07T06:20:26;4.77;;;4.40;;
2021;SDS011;1015;49.756;6.994;2023-09-07T06:22:53;6.97;;;4.87;;
2021;SDS011;1015;49.756;6.994;2023-09-07T06:25:20;5.10;;;4.70;;
2021;SDS011;1015;49.756;6.994;2023-09-07T06:27:48;5.23;;;4.73;;
2021;SDS011;1015;49.756;6.994;2023-09-07T06:30:15;5.27;;;4.80;;
2021;SDS011;1015;49.756;6.994;2023-09-07T06:32:43;5.90;;;4.13;;
2021;SDS011;1015;49.756;6.994;2023-09-07T06:35:10;5.60;;;5.10;;
2021;SDS011;1015;49.756;6.994;2023-09-07T06:37:37;5.33;;;4.83;;
2021;SDS011;1015;49.756;6.994;2023-09-07T06:40:06;6.30;;;4.97;;
2021;SDS011;1015;49.756;6.994;2023-09-07T06:42:34;5.40;;;4.90;;
2021;SDS011;1015;49.756;6.994;2023-09-07T06:45:01;5.10;;;4.70;;
2021;SDS011;1015;49.756;6.994;2023-09-07T06:47:28;4.93;;;4.53;;
2021;SDS011;1015;49.756;6.994;2023-09-07T06:49:57;5.33;;;4.80;;
2021;SDS011;1015;49.756;6.994;2023-09-07T06:52:24;5.10;;;4.70;;
2021;SDS011;1015;49.756;6.994;2023-09-07T06:54:52;5.70;;;5.10;;
2021;SDS011;1015;49.756;6.994;2023-09-07T06:57:19;5.23;;;4.70;;
2021;SDS011;1015;49.756;6.994;2023-09-07T06:59:46;4.50;;;4.20;;
2021;SDS011;1015;49.756;6.994;2023-09-07T07:02:13;5.30;;;4.80;;
2021;SDS011;1015;49.756;6.994;2023-09-07T07:04:40;5.53;;;5.03;;
2021;SDS011;1015;49.756;6.994;2023-09-07T07:07:11;5.00;;;4.60;;
2021;SDS011;1015;49.756;6.994;2023-09-07T07:09:38;5.23;;;4.83;;
2021;SDS011;1015;49.756;6.994;2023-09-07T07:12:05;5.23;;;4.83;;
2021;SDS011;1015;49.756;6.994;2023-09-07T07:14:32;5.80;;;5.27;;
2021;SDS011;1015;49.756;6.994;2023-09-07T07:16:59;6.27;;;5.70;;
2021;SDS011;1015;49.756;6.994;2023-09-07T07:19:29;5.20;;;4.80;;
2021;SDS011;1015;49.756;6.994;2023-09-07T07:21:56;6.00;;;5.20;;
2021;SDS011;1015;49.756;6.994;2023-09-07T07:24:25;5.30;;;4.80;;
2021;SDS011;1015;49.756;6.994;2023-09-07T07:26:52;6.07;;;5.57;;
2021;SDS011;1015;49.756;6.994;2023-09-07T07:29:19;6.07;;;5.50;;
2021;SDS011;1015;49.756;6.994;2023-09-07T07:31:46;5.40;;;5.00;;
2021;SDS011;1015;49.756;6.994;2023-09-07T07:34:13;7.93;;;5.83;;
2021;SDS011;1015;49.756;6.994;2023-09-07T07:36:40;5.70;;;5.07;;
2021;SDS011;1015;49.756;6.994;2023-09-07T07:39:07;5.87;;;5.27;;
2021;SDS011;1015;49.756;6.994;2023-09-07T07:41:36;5.33;;;4.83;;
2021;SDS011;1015;49.756;6.994;2023-09-07T07:44:03;5.90;;;4.90;;
2021;SDS011;1015;49.756;6.994;2023-09-07T07:46:30;8.20;;;5.40;;
2021;SDS011;1015;49.756;6.994;2023-09-07T07:48:57;5.83;;;5.30;;
2021;SDS011;1015;49.756;6.994;2023-09-07T07:51:24;7.83;;;5.80;;
2021;SDS011;1015;49.756;6.994;2023-09-07T07:53:53;6.17;;;5.60;;
2021;SDS011;1015;49.756;6.994;2023-09-07T07:56:20;5.63;;;4.93;;
2021;SDS011;1015;49.756;6.994;2023-09-07T07:58:49;5.00;;;4.60;;
2021;SDS011;1015;49.756;6.994;2023-09-07T08:01:16;10.97;;;5.90;;
2021;SDS011;1015;49.756;6.994;2023-09-07T08:03:45;8.23;;;5.53;;
2021;SDS011;1015;49.756;6.994;2023-09-07T08:06:12;5.30;;;4.90;;
2021;SDS011;1015;49.756;6.994;2023-09-07T08:08:39;6.13;;;5.53;;
2021;SDS011;1015;49.756;6.994;2023-09-07T08:11:06;5.77;;;5.03;;
2021;SDS011;1015;49.756;6.994;2023-09-07T08:13:34;5.73;;;5.33;;
2021;SDS011;1015;49.756;6.994;2023-09-07T08:16:03;5.30;;;4.90;;
2021;SDS011;1015;49.756;6.994;2023-09-07T08:18:32;5.87;;;4.90;;
2021;SDS011;1015;49.756;6.994;2023-09-07T08:20:59;5.87;;;5.30;;
2021;SDS011;1015;49.756;6.994;2023-09-07T08:23:26;5.77;;;5.27;;
2021;SDS011;1015;49.756;6.994;2023-09-07T08:25:53;5.50;;;5.00;;
2021;SDS011;1015;49.756;6.994;2023-09-07T08:28:20;5.83;;;5.23;;
2021;SDS011;1015;49.756;6.994;2023-09-07T08:30:48;6.10;;;5.30;;
2021;SDS011;1015;49.756;6.994;2023-09-07T08:33:19;5.70;;;5.20;;
2021;SDS011;1015;49.756;6.994;2023-09-07T08:35:51;5.20;;;4.70;;
2021;SDS011;1015;49.756;6.994;2023-09-07T08:38:19;5.53;;;5.13;;
2021;SDS011;1015;49.756;6.994;2023-09-07T08:40:49;5.03;;;4.63;;
2021;SDS011;1015;49.756;6.994;2023-09-07T08:43:16;5.33;;;4.93;;
2021;SDS011;1015;49.756;6.994;2023-09-07T08:45:46;6.40;;;5.90;;
2021;SDS011;1015;49.756;6.994;2023-09-07T08:48:13;5.67;;;5.17;;
2021;SDS011;1015;49.756;6.994;2023-09-07T08:50:43;6.13;;;5.13;;
2021;SDS011;1015;49.756;6.994;2023-09-07T08:53:15;5.50;;;5.00;;
2021;SDS011;1015;49.756;6.994;2023-09-07T08:55:43;4.97;;;4.67;;
2021;SDS011;1015;49.756;6.994;2023-09-07T08:58:10;4.80;;;4.40;;
2021;SDS011;1015;49.756;6.994;2023-09-07T09:00:38;5.47;;;5.07;;
2021;SDS011;1015;49.756;6.994;2023-09-07T09:03:08;5.90;;;5.30;;
2021;SDS011;1015;49.756;6.994;2023-09-07T09:05:35;5.50;;;5.00;;
2021;SDS011;1015;49.756;6.994;2023-09-07T09:08:05;5.70;;;5.30;;
2021;SDS011;1015;49.756;6.994;2023-09-07T09:10:32;5.77;;;5.27;;
2021;SDS011;1015;49.756;6.994;2023-09-07T09:12:59;5.33;;;4.93;;
2021;SDS011;1015;49.756;6.994;2023-09-07T09:15:26;5.87;;;5.00;;
2021;SDS011;1015;49.756;6.994;2023-09-07T09:17:53;5.30;;;4.80;;
2021;SDS011;1015;49.756;6.994;2023-09-07T09:20:21;5.10;;;4.70;;
2021;SDS011;1015;49.756;6.994;2023-09-07T09:22:50;5.20;;;4.80;;
2021;SDS011;1015;49.756;6.994;2023-09-07T09:25:18;5.80;;;5.30;;
2021;SDS011;1015;49.756;6.994;2023-09-07T09:27:45;6.00;;;5.50;;
2021;SDS011;1015;49.756;6.994;2023-09-07T09:30:13;5.17;;;4.77;;
2021;SDS011;1015;49.756;6.994;2023-09-07T09:32:41;5.33;;;4.93;;
2021;SDS011;1015;49.756;6.994;2023-09-07T09:35:08;5.00;;;4.60;;
2021;SDS011;1015;49.756;6.994;2023-09-07T09:37:42;5.30;;;4.80;;
2021;SDS011;1015;49.756;6.994;2023-09-07T09:40:10;5.23;;;4.83;;
2021;SDS011;1015;49.756;6.994;2023-09-07T09:42:38;5.20;;;4.80;;
2021;SDS011;1015;49.756;6.994;2023-09-07T09:45:06;5.23;;;4.73;;
2021;SDS011;1015;49.756;6.994;2023-09-07T09:47:35;5.43;;;5.03;;
2021;SDS011;1015;49.756;6.994;2023-09-07T09:50:05;6.60;;;4.40;;
2021;SDS011;1015;49.756;6.994;2023-09-07T09:52:33;5.00;;;4.63;;
2021;SDS011;1015;49.756;6.994;2023-09-07T09:55:01;5.47;;;5.00;;
2021;SDS011;1015;49.756;6.994;2023-09-07T09:57:30;5.67;;;5.27;;
2021;SDS011;1015;49.756;6.994;2023-09-07T09:59:59;5.30;;;4.90;;
2021;SDS011;1015;49.756;6.994;2023-09-07T10:02:32;4.83;;;4.53;;
2021;SDS011;1015;49.756;6.994;2023-09-07T10:05:01;4.80;;;4.40;;
2021;SDS011;1015;49.756;6.994;2023-09-07T10:07:40;5.47;;;4.77;;
2021;SDS011;1015;49.756;6.994;2023-09-07T10:10:09;5.27;;;4.77;;
2021;SDS011;1015;49.756;6.994;2023-09-07T10:12:39;6.17;;;5.67;;
2021;SDS011;1015;49.756;6.994;2023-09-07T10:15:19;5.63;;;4.70;;
2021;SDS011;1015;49.756;6.994;2023-09-07T10:17:46;4.80;;;4.50;;
2021;SDS011;1015;49.756;6.994;2023-09-07T10:20:15;5.50;;;5.00;;
2021;SDS011;1015;49.756;6.994;2023-09-07T10:22:42;5.90;;;5.40;;
2021;SDS011;1015;49.756;6.994;2023-09-07T10:25:20;5.17;;;4.67;;
2021;SDS011;1015;49.756;6.994;2023-09-07T10:27:47;5.37;;;4.57;;
2021;SDS011;1015;49.756;6.994;2023-09-07T10:30:16;5.00;;;4.60;;
2021;SDS011;1015;49.756;6.994;2023-09-07T10:32:47;4.97;;;4.43;;
2021;SDS011;1015;49.756;6.994;2023-09-07T10:35:14;5.23;;;4.83;;
2021;SDS011;1015;49.756;6.994;2023-09-07T10:37:44;4.90;;;4.50;;
2021;SDS011;1015;49.756;6.994;2023-09-07T10:40:11;5.23;;;4.83;;
2021;SDS011;1015;49.756;6.994;2023-09-07T10:42:41;5.17;;;4.67;;
2021;SDS011;1015;49.756;6.994;2023-09-07T10:45:08;5.93;;;4.90;;
2021;SDS011;1015;49.756;6.994;2023-09-07T10:47:41;4.50;;;4.20;;
2021;SDS011;1015;49.756;6.994;2023-09-07T10:50:09;4.77;;;4.07;;
2021;SDS011;1015;49.756;6.994;2023-09-07T10:52:37;4.67;;;4.37;;
2021;SDS011;1015;49.756;6.994;2023-09-07T10:55:06;4.47;;;4.10;;
2021;SDS011;1015;49.756;6.994;2023-09-07T10:57:36;4.30;;;3.90;;
2021;SDS011;1015;49.756;6.994;2023-09-07T11:00:08;4.60;;;4.30;;
2021;SDS011;1015;49.756;6.994;2023-09-07T11:02:36;4.57;;;4.27;;
2021;SDS011;1015;49.756;6.994;2023-09-07T11:05:04;4.50;;;4.20;;
2021;SDS011;1015;49.756;6.994;2023-09-07T11:07:32;4.83;;;4.33;;
2021;SDS011;1015;49.756;6.994;2023-09-07T11:09:59;4.33;;;4.03;;
2021;SDS011;1015;49.756;6.994;2023-09-07T11:12:29;4.83;;;4.47;;
2021;SDS011;1015;49.756;6.994;2023-09-07T11:14:57;5.10;;;4.70;;
2021;SDS011;1015;49.756;6.994;2023-09-07T11:17:25;4.53;;;4.23;;
2021;SDS011;1015;49.756;6.994;2023-09-07T11:19:53;4.53;;;4.20;;
2021;SDS011;1015;49.756;6.994;2023-09-07T11:22:22;4.17;;;3.93;;
2021;SDS011;1015;49.756;6.994;2023-09-07T11:24:49;4.53;;;4.13;;
2021;SDS011;1015;49.756;6.994;2023-09-07T11:27:17;4.80;;;4.40;;
2021;SDS011;1015;49.756;6.994;2023-09-07T11:29:50;4.80;;;4.30;;
2021;SDS011;1015;49.756;6.994;2023-09-07T11:32:17;4.67;;;4.37;;
2021;SDS011;1015;49.756;6.994;2023-09-07T11:34:47;4.03;;;3.83;;
2021;SDS011;1015;49.756;6.994;2023-09-07T11:37:15;5.00;;;4.60;;
2021;SDS011;1015;49.756;6.994;2023-09-07T11:39:43;4.90;;;4.50;;
2021;SDS011;1015;49.756;6.994;2023-09-07T11:42:10;4.90;;;4.50;;
2021;SDS011;1015;49.756;6.994;2023-09-07T11:44:37;4.87;;;4.37;;
2021;SDS011;1015;49.756;6.994;2023-09-07T11:47:04;4.30;;;4.00;;
2021;SDS011;1015;49.756;6.994;2023-09-07T11:49:32;4.50;;;4.20;;
2021;SDS011;1015;49.756;6.994;2023-09-07T11:51:59;4.83;;;4.50;;
2021;SDS011;1015;49.756;6.994;2023-09-07T11:54:26;5.20;;;4.80;;
2021;SDS011;1015;49.756;6.994;2023-09-07T11:56:55;5.20;;;4.80;;
2021;SDS011;1015;49.756;6.994;2023-09-07T11:59:22;5.60;;;4.77;;
2021;SDS011;1015;49.756;6.994;2023-09-07T12:01:49;4.90;;;4.50;;
2021;SDS011;1015;49.756;6.994;2023-09-07T12:04:16;5.00;;;4.50;;
2021;SDS011;1015;49.756;6.994;2023-09-07T12:06:43;5.00;;;4.60;;
2021;SDS011;1015;49.756;6.994;2023-09-07T12:09:10;4.53;;;4.20;;
2021;SDS011;1015;49.756;6.994;2023-09-07T12:11:37;5.10;;;4.70;;
2021;SDS011;1015;49.756;6.994;2023-09-07T12:14:06;4.90;;;4.50;;
2021;SDS011;1015;49.756;6.994;2023-09-07T12:16:34;5.17;;;4.77;;
2021;SDS011;1015;49.756;6.994;2023-09-07T12:19:01;5.40;;;4.90;;
2021;SDS011;1015;49.756;6.994;2023-09-07T12:21:28;4.77;;;4.47;;
2021;SDS011;1015;49.756;6.994;2023-09-07T12:23:55;5.23;;;4.93;;
2021;SDS011;1015;49.756;6.994;2023-09-07T12:26:22;5.03;;;4.73;;
2021;SDS011;1015;49.756;6.994;2023-09-07T12:28:49;5.57;;;5.17;;
2021;SDS011;1015;49.756;6.994;2023-09-07T12:31:17;5.03;;;4.63;;
2021;SDS011;1015;49.756;6.994;2023-09-07T12:33:44;6.30;;;5.10;;
2021;SDS011;1015;49.756;6.994;2023-09-07T12:36:12;5.30;;;4.90;;
2021;SDS011;1015;49.756;6.994;2023-09-07T12:38:39;4.90;;;4.60;;
2021;SDS011;1015;49.756;6.994;2023-09-07T12:41:06;5.70;;;5.30;;
2021;SDS011;1015;49.756;6.994;2023-09-07T12:43:33;4.80;;;4.40;;
2021;SDS011;1015;49.756;6.994;2023-09-07T12:46:00;5.83;;;5.33;;
2021;SDS011;1015;49.756;6.994;2023-09-07T12:48:30;5.10;;;4.70;;
2021;SDS011;1015;49.756;6.994;2023-09-07T12:50:57;6.97;;;5.10;;
2021;SDS011;1015;49.756;6.994;2023-09-07T12:53:24;5.60;;;5.17;;
2021;SDS011;1015;49.756;6.994;2023-09-07T12:55:51;5.30;;;4.90;;
2021;SDS011;1015;49.756;6.994;2023-09-07T12:58:18;6.23;;;5.63;;
2021;SDS011;1015;49.756;6.994;2023-09-07T13:00:46;5.47;;;5.07;;
2021;SDS011;1015;49.756;6.994;2023-09-07T13:03:16;5.30;;;5.00;;
2021;SDS011;1015;49.756;6.994;2023-09-07T13:05:44;6.07;;;5.57;;
2021;SDS011;1015;49.756;6.994;2023-09-07T13:08:11;5.33;;;5.00;;
2021;SDS011;1015;49.756;6.994;2023-09-07T13:10:39;5.87;;;5.10;;
2021;SDS011;1015;49.756;6.994;2023-09-07T13:13:06;5.67;;;5.00;;
2021;SDS011;1015;49.756;6.994;2023-09-07T13:15:33;5.07;;;4.67;;
2021;SDS011;1015;49.756;6.994;2023-09-07T13:18:00;4.73;;;4.43;;
2021;SDS011;1015;49.756;6.994;2023-09-07T13:20:28;5.87;;;5.33;;
2021;SDS011;1015;49.756;6.994;2023-09-07T13:22:56;5.50;;;5.17;;
2021;SDS011;1015;49.756;6.994;2023-09-07T13:25:23;5.87;;;5.47;;
2021;SDS011;1015;49.756;6.994;2023-09-07T13:27:51;5.77;;;5.37;;
2021;SDS011;1015;49.756;6.994;2023-09-07T13:30:18;5.67;;;5.37;;
2021;SDS011;1015;49.756;6.994;2023-09-07T13:32:45;5.80;;;5.07;;
2021;SDS011;1015;49.756;6.994;2023-09-07T13:35:12;5.40;;;5.00;;
2021;SDS011;1015;49.756;6.994;2023-09-07T13:37:39;5.93;;;5.40;;
2021;SDS011;1015;49.756;6.994;2023-09-07T13:40:08;5.50;;;5.00;;
2021;SDS011;1015;49.756;6.994;2023-09-07T13:42:35;6.20;;;5.70;;
2021;SDS011;1015;49.756;6.994;2023-09-07T13:45:04;5.57;;;5.17;;
2021;SDS011;1015;49.756;6.994;2023-09-07T13:47:31;6.00;;;5.60;;
2021;SDS011;1015;49.756;6.994;2023-09-07T13:49:58;6.53;;;5.90;;
2021;SDS011;1015;49.756;6.994;2023-09-07T13:52:25;7.33;;;5.53;;
2021;SDS011;1015;49.756;6.994;2023-09-07T13:54:52;5.87;;;5.30;;
2021;SDS011;1015;49.756;6.994;2023-09-07T13:57:21;5.50;;;5.00;;
2021;SDS011;1015;49.756;6.994;2023-09-07T13:59:48;5.33;;;5.03;;
2021;SDS011;1015;49.756;6.994;2023-09-07T14:02:15;7.33;;;5.40;;
2021;SDS011;1015;49.756;6.994;2023-09-07T14:04:42;5.23;;;4.73;;
2021;SDS011;1015;49.756;6.994;2023-09-07T14:07:09;5.60;;;5.00;;
2021;SDS011;1015;49.756;6.994;2023-09-07T14:09:37;5.67;;;5.27;;
2021;SDS011;1015;49.756;6.994;2023-09-07T14:12:05;5.60;;;5.10;;
2021;SDS011;1015;49.756;6.994;2023-09-07T14:14:33;5.97;;;5.13;;
2021;SDS011;1015;49.756;6.994;2023-09-07T14:17:01;5.33;;;4.73;;
2021;SDS011;1015;49.756;6.994;2023-09-07T14:19:28;5.63;;;5.13;;
2021;SDS011;1015;49.756;6.994;2023-09-07T14:21:56;5.60;;;5.10;;
2021;SDS011;1015;49.756;6.994;2023-09-07T14:24:23;5.80;;;5.30;;
2021;SDS011;1015;49.756;6.994;2023-09-07T14:26:50;5.60;;;5.10;;
2021;SDS011;1015;49.756;6.994;2023-09-07T14:29:17;6.63;;;5.57;;
2021;SDS011;1015;49.756;6.994;2023-09-07T14:31:46;5.40;;;5.00;;
2021;SDS011;1015;49.756;6.994;2023-09-07T14:34:13;5.03;;;4.73;;
2021;SDS011;1015;49.756;6.994;2023-09-07T14:36:40;5.43;;;5.03;;
2021;SDS011;1015;49.756;6.994;2023-09-07T14:39:08;5.53;;;5.13;;
2021;SDS011;1015;49.756;6.994;2023-09-07T14:41:35;5.17;;;4.77;;
2021;SDS011;1015;49.756;6.994;2023-09-07T14:44:02;5.30;;;4.90;;
2021;SDS011;1015;49.756;6.994;2023-09-07T14:46:30;5.50;;;5.10;;
2021;SDS011;1015;49.756;6.994;2023-09-07T14:48:58;5.77;;;5.13;;
2021;SDS011;1015;49.756;6.994;2023-09-07T14:51:26;5.60;;;4.43;;
2021;SDS011;1015;49.756;6.994;2023-09-07T14:53:53;4.80;;;4.50;;
2021;SDS011;1015;49.756;6.994;2023-09-07T14:56:20;4.87;;;4.47;;
2021;SDS011;1015;49.756;6.994;2023-09-07T14:58:47;5.23;;;4.80;;
2021;SDS011;1015;49.756;6.994;2023-09-07T15:01:15;5.13;;;4.70;;
2021;SDS011;1015;49.756;6.994;2023-09-07T15:03:42;5.80;;;4.60;;
2021;SDS011;1015;49.756;6.994;2023-09-07T15:06:10;4.80;;;4.50;;
2021;SDS011;1015;49.756;6.994;2023-09-07T15:08:40;5.43;;;4.93;;
2021;SDS011;1015;49.756;6.994;2023-09-07T15:11:08;4.60;;;4.30;;
2021;SDS011;1015;49.756;6.994;2023-09-07T15:13:37;5.10;;;4.70;;
2021;SDS011;1015;49.756;6.994;2023-09-07T15:16:04;5.33;;;4.83;;
2021;SDS011;1015;49.756;6.994;2023-09-07T15:18:33;4.77;;;4.40;;